X  Kiinni Metar Aviation säätiedot     LGTS Thessaloniki Macedonia International Airport
Lämpötila
36°C Lämpötila
17°C Kastepiste
32% Kosteus



Tuuli
6 M/S
14 MPH
23 KM/T
12 KTS



200°
EEL
Nykyiset olosuhteet

Puolipilvistä Puolipilvistä
Paine 1006.77 (hPa) - 29.73 (inHg)
Näkyvyys 6 (maili) - 9.7 (km)
Lentokenttä
Lentokentän koodi LGTS

Sijainti: Thessaloniki Macedonia International Airport
Etäisyys: 85 (km)

Metar:
LGTS 201420Z 20012KT 9999 FEW025 36/17 Q1007 NOSIG

Aika: 20-07-2024 17:20 EEST